Time;durP1;ratioP1;P1;durP2;ratioP2;P2;SDS_P1;SDS_P2;PMS_P1;PMS_P2;Temp;Humidity;BMP_temperature;BMP_pressure;BME280_temperature;BME280_humidity;BME280_pressure;Samples;Min_cycle;Max_cycle;Signal;HPM_P1;HPM_P2
2023/11/08 00:02:23;;;;;;;;;;;7.70;65.80;;;2.91;100.00;95761.22;5012407;28;19909;-49
2023/11/08 00:04:49;;;;;;;;;;;7.70;65.80;;;2.91;100.00;95766.47;5013370;28;19917;-51
2023/11/08 00:07:14;;;;;;;;;;;7.70;65.80;;;2.89;100.00;95765.88;5010210;28;20008;-48
2023/11/08 00:09:40;;;;;;;;;;;7.80;65.90;;;2.94;100.00;95762.63;5013226;28;20000;-51
2023/11/08 00:12:08;;;;;;;;;;;7.80;65.90;;;2.98;100.00;95761.19;5003927;28;19925;-49
2023/11/08 00:14:34;;;;;;;;;;;7.80;65.90;;;2.99;100.00;95749.63;5013264;28;19954;-50
2023/11/08 00:17:01;;;;;;;;;;;7.80;65.80;;;3.01;100.00;95758.94;5012552;28;20408;-47
2023/11/08 00:19:27;;;;;;;;;;;7.80;65.90;;;3.07;100.00;95756.44;5006386;28;19951;-50
2023/11/08 00:21:52;;;;;;;;;;;7.90;66.00;;;3.11;100.00;95752.41;5013187;28;19963;-48
2023/11/08 00:24:18;;;;;;;;;;;7.90;65.90;;;3.09;100.00;95752.59;5012128;28;19912;-49
2023/11/08 00:26:45;;;;;;;;;;;7.90;65.90;;;3.08;100.00;95750.19;5013237;28;19916;-50
2023/11/08 00:29:11;;;;;;;;;;;7.90;65.80;;;3.09;100.00;95757.84;5012014;28;19913;-47
2023/11/08 00:31:37;;;;;;;;;;;7.90;65.80;;;3.08;100.00;95758.88;5010396;28;19938;-51
2023/11/08 00:34:03;;;;;;;;;;;7.90;65.80;;;3.07;100.00;95759.09;5012656;28;19909;-48
2023/11/08 00:36:29;;;;;;;;;;;7.90;65.80;;;3.01;100.00;95755.50;5007718;28;19909;-48
2023/11/08 00:38:57;;;;;;;;;;;7.90;65.80;;;3.03;100.00;95760.53;5012307;28;19940;-48
2023/11/08 00:41:24;;;;;;;;;;;7.90;65.80;;;2.99;100.00;95758.34;5011885;28;19913;-48
2023/11/08 00:43:55;;;;;;;;;;;7.90;65.80;;;2.99;100.00;95749.63;5012755;28;20338;-47
2023/11/08 00:46:23;;;;;;;;;;;7.90;65.80;;;2.97;100.00;95756.94;5012742;28;19909;-48
2023/11/08 00:48:48;;;;;;;;;;;7.90;65.80;;;2.96;100.00;95757.94;5009630;28;19917;-48
2023/11/08 00:51:14;;;;;;;;;;;7.90;65.80;;;3.00;100.00;95759.13;5012665;28;19909;-50
2023/11/08 00:53:40;;;;;;;;;;;7.90;65.90;;;3.05;100.00;95758.50;5011582;28;19952;-48
2023/11/08 00:56:06;;;;;;;;;;;7.90;66.00;;;3.08;100.00;95758.09;5012143;28;19909;-49
2023/11/08 00:58:32;;;;;;;;;;;7.90;66.00;;;3.09;100.00;95757.84;5012368;28;19909;-48
2023/11/08 01:00:58;;;;;;;;;;;8.00;66.10;;;3.10;100.00;95759.47;5011305;28;20019;-49
2023/11/08 01:03:24;;;;;;;;;;;8.00;66.00;;;3.10;100.00;95766.56;5012343;28;20003;-50
2023/11/08 01:05:50;;;;;;;;;;;8.00;65.90;;;3.08;100.00;95755.47;5011490;28;20291;-48
2023/11/08 01:08:16;;;;;;;;;;;8.00;65.90;;;3.06;100.00;95749.59;5012081;28;19917;-48
2023/11/08 01:10:43;;;;;;;;;;;8.00;65.80;;;3.05;100.00;95756.69;5012200;28;19912;-46
2023/11/08 01:13:09;;;;;;;;;;;8.00;65.80;;;3.05;100.00;95759.31;4993965;28;20375;-45
2023/11/08 01:15:39;;;;;;;;;;;7.90;65.80;;;3.01;100.00;95761.56;4994804;28;19909;-46
2023/11/08 01:18:05;;;;;;;;;;;7.90;65.80;;;2.95;100.00;95758.97;5011167;28;19909;-46
2023/11/08 01:20:31;;;;;;;;;;;7.90;65.80;;;2.88;100.00;95761.63;5012095;28;20368;-48
2023/11/08 01:22:58;;;;;;;;;;;7.80;65.70;;;2.85;100.00;95761.25;4993840;28;19963;-49
2023/11/08 01:25:24;;;;;;;;;;;7.80;65.70;;;2.87;100.00;95764.47;5011738;28;19909;-48
2023/11/08 01:27:51;;;;;;;;;;;7.80;65.80;;;2.80;100.00;95758.47;5011756;28;19951;-46
2023/11/08 01:30:17;;;;;;;;;;;7.80;65.80;;;2.78;100.00;95762.09;5011198;28;19916;-45
2023/11/08 01:32:43;;;;;;;;;;;7.70;65.80;;;2.82;100.00;95761.66;5011975;28;19909;-47
2023/11/08 01:35:09;;;;;;;;;;;7.70;65.90;;;2.80;100.00;95767.16;5010952;28;19915;-46
2023/11/08 01:37:36;;;;;;;;;;;7.70;66.00;;;2.81;100.00;95771.38;5011585;28;20003;-48
2023/11/08 01:40:03;;;;;;;;;;;7.70;66.00;;;2.82;100.00;95762.50;5011845;28;20004;-47
2023/11/08 01:42:30;;;;;;;;;;;7.70;66.00;;;2.79;100.00;95757.66;4998832;28;19913;-44
2023/11/08 01:44:56;;;;;;;;;;;7.70;66.00;;;2.71;100.00;95760.53;5011859;28;19971;-45
2023/11/08 01:47:23;;;;;;;;;;;7.60;65.90;;;2.71;100.00;95760.53;5011352;28;20410;-46
2023/11/08 01:49:50;;;;;;;;;;;7.60;66.60;;;2.65;100.00;95754.28;4991853;28;19952;-47
2023/11/08 01:52:16;;;;;;;;;;;7.60;65.80;;;2.59;100.00;95756.94;5011720;28;20004;-47
2023/11/08 01:54:48;;;;;;;;;;;7.60;65.90;;;2.62;100.00;95756.53;5003765;28;19909;-48
2023/11/08 01:57:15;;;;;;;;;;;7.50;65.80;;;2.52;100.00;95762.25;5011741;28;19916;-51
2023/11/08 01:59:43;;;;;;;;;;;7.50;65.90;;;2.48;100.00;95758.44;5010886;28;20291;-50
2023/11/08 02:02:09;;;;;;;;;;;7.40;65.80;;;2.46;100.00;95761.25;4991471;28;20115;-50
2023/11/08 02:04:35;;;;;;;;;;;7.40;65.80;;;2.36;100.00;95753.00;5011736;28;19909;-48
2023/11/08 02:07:01;;;;;;;;;;;7.30;65.80;;;2.31;100.00;95756.25;4993052;28;19909;-48
2023/11/08 02:09:29;;;;;;;;;;;7.30;65.80;;;2.28;100.00;95761.13;5010356;28;19963;-51
2023/11/08 02:11:58;;;;;;;;;;;7.20;66.10;;;2.24;100.00;95752.03;4992214;28;19940;-45
2023/11/08 02:14:25;;;;;;;;;;;7.20;65.90;;;2.19;100.00;95751.84;5006014;28;19991;-48
2023/11/08 02:16:51;;;;;;;;;;;7.10;65.90;;;2.11;100.00;95746.84;5011498;28;20110;-46
2023/11/08 02:19:17;;;;;;;;;;;7.10;65.90;;;2.10;100.00;95748.66;5010955;28;20000;-53
2023/11/08 02:21:43;;;;;;;;;;;7.00;65.90;;;2.05;100.00;95746.63;5011780;28;20043;-49
2023/11/08 02:24:29;;;;;;;;;;;7.00;66.00;;;2.02;100.00;95738.38;5008062;28;19988;-48
2023/11/08 02:26:54;;;;;;;;;;;6.90;66.00;;;1.97;100.00;95735.53;5011655;28;19909;-49
2023/11/08 02:29:20;;;;;;;;;;;6.90;66.10;;;1.93;100.00;95739.59;5010229;28;19920;-48
2023/11/08 02:31:50;;;;;;;;;;;6.80;66.00;;;1.88;100.00;95742.03;5010291;28;19917;-48
2023/11/08 02:34:17;;;;;;;;;;;6.80;66.00;;;1.82;100.00;95735.81;5009702;28;20003;-48
2023/11/08 02:36:43;;;;;;;;;;;6.80;66.10;;;1.80;100.00;95737.81;5014467;28;19916;-48
2023/11/08 02:39:09;;;;;;;;;;;6.80;66.10;;;1.73;100.00;95739.66;5014829;28;19917;-53
2023/11/08 02:41:35;;;;;;;;;;;6.70;66.10;;;1.69;100.00;95736.59;5014386;28;19916;-49
2023/11/08 02:44:02;;;;;;;;;;;6.60;66.10;;;1.70;100.00;95732.19;5010898;28;20364;-53
2023/11/08 02:46:28;;;;;;;;;;;6.60;66.20;;;1.67;100.00;95738.66;5015131;28;19913;-52
2023/11/08 02:48:57;;;;;;;;;;;6.60;66.30;;;1.71;100.00;95726.72;5012466;28;20372;-52
2023/11/08 02:51:32;;;;;;;;;;;6.60;66.40;;;1.78;100.00;95724.06;5015067;28;19909;-50
2023/11/08 02:53:58;;;;;;;;;;;6.60;66.50;;;1.77;100.00;95732.97;5013919;28;20380;-49
2023/11/08 02:56:25;;;;;;;;;;;6.60;66.50;;;1.72;100.00;95728.31;5014720;28;19916;-53
2023/11/08 02:58:56;;;;;;;;;;;6.60;66.50;;;1.68;100.00;95729.75;4997125;28;19916;-50
2023/11/08 03:01:23;;;;;;;;;;;6.50;66.50;;;1.65;100.00;95729.34;5014263;28;20253;-50
2023/11/08 03:03:53;;;;;;;;;;;6.50;66.40;;;1.60;100.00;95728.16;5014649;28;19913;-48
2023/11/08 03:06:19;;;;;;;;;;;6.50;66.40;;;1.61;100.00;95732.38;5011306;28;20002;-48
2023/11/08 03:08:46;;;;;;;;;;;6.50;66.50;;;1.57;100.00;95725.94;5014494;28;20390;-53
2023/11/08 03:11:12;;;;;;;;;;;6.50;66.40;;;1.53;100.00;95734.41;5013564;28;19909;-48
2023/11/08 03:13:38;;;;;;;;;;;6.50;66.40;;;1.48;100.00;95732.41;5010772;28;19919;-49
2023/11/08 03:16:06;;;;;;;;;;;6.40;66.40;;;1.43;100.00;95731.41;5014433;28;19909;-47
2023/11/08 03:18:31;;;;;;;;;;;6.40;66.40;;;1.36;100.00;95741.91;4996207;28;19917;-48
2023/11/08 03:20:57;;;;;;;;;;;6.40;66.40;;;1.34;100.00;95738.66;5014275;28;19980;-48
2023/11/08 03:23:23;;;;;;;;;;;6.30;66.30;;;1.33;100.00;95748.38;5013500;28;19920;-48
2023/11/08 03:25:51;;;;;;;;;;;6.30;67.20;;;1.33;100.00;95745.75;5014256;28;20225;-48
2023/11/08 03:28:17;;;;;;;;;;;6.30;66.60;;;1.35;100.00;95748.19;4996560;28;19913;-48
2023/11/08 03:30:43;;;;;;;;;;;6.30;66.60;;;1.33;100.00;95739.69;5013475;28;19909;-49
2023/11/08 03:33:09;;;;;;;;;;;6.30;66.60;;;1.33;100.00;95742.31;5014268;28;19987;-48
2023/11/08 03:35:35;;;;;;;;;;;6.30;66.40;;;1.32;100.00;95743.34;5013062;28;20442;-50
2023/11/08 03:38:01;;;;;;;;;;;6.30;66.50;;;1.36;100.00;95747.97;5013703;28;19932;-50
2023/11/08 03:40:27;;;;;;;;;;;6.20;66.50;;;1.32;100.00;95738.88;5014315;28;19967;-49
2023/11/08 03:42:53;;;;;;;;;;;6.20;66.50;;;1.29;100.00;95744.53;5009100;28;19910;-49
2023/11/08 03:45:19;;;;;;;;;;;6.20;66.50;;;1.25;100.00;95747.75;5013693;28;19916;-53
2023/11/08 03:47:45;;;;;;;;;;;6.10;66.40;;;1.18;100.00;95750.38;5011861;28;19916;-49
2023/11/08 03:50:11;;;;;;;;;;;6.10;66.40;;;1.17;100.00;95751.41;5013659;28;20002;-50
2023/11/08 03:52:37;;;;;;;;;;;6.10;66.40;;;1.15;100.00;95754.22;5013871;28;20292;-48
2023/11/08 03:55:05;;;;;;;;;;;6.10;66.50;;;1.18;100.00;95754.81;5012608;28;20003;-48
2023/11/08 03:57:31;;;;;;;;;;;6.00;66.50;;;1.18;100.00;95757.44;5013647;28;19912;-48
2023/11/08 03:59:57;;;;;;;;;;;6.00;66.70;;;1.22;100.00;95750.78;5012568;28;19920;-48
2023/11/08 04:02:24;;;;;;;;;;;6.00;66.70;;;1.20;100.00;95755.44;5013650;28;19915;-48
2023/11/08 04:04:50;;;;;;;;;;;6.00;66.70;;;1.17;100.00;95759.28;4995877;28;19909;-48
2023/11/08 04:07:18;;;;;;;;;;;6.00;66.70;;;1.18;100.00;95760.06;5012446;28;19909;-48
2023/11/08 04:09:44;;;;;;;;;;;6.00;66.80;;;1.15;100.00;95756.84;5013317;28;19909;-48
2023/11/08 04:12:12;;;;;;;;;;;6.00;66.70;;;1.09;100.00;95757.63;5011788;28;26910;-49
2023/11/08 04:14:39;;;;;;;;;;;6.00;66.70;;;1.12;100.00;95769.56;5009941;28;19913;-48
2023/11/08 04:17:08;;;;;;;;;;;6.00;66.70;;;1.09;100.00;95760.25;5012219;28;20012;-48
2023/11/08 04:19:35;;;;;;;;;;;6.00;66.80;;;1.11;100.00;95760.88;5013088;28;19940;-49
2023/11/08 04:22:00;;;;;;;;;;;5.90;66.70;;;1.06;100.00;95757.22;5013238;28;19947;-49
2023/11/08 04:24:26;;;;;;;;;;;5.90;66.70;;;0.99;100.00;95754.59;5012264;28;20384;-49
2023/11/08 04:26:52;;;;;;;;;;;5.90;66.70;;;0.92;100.00;95759.03;5013334;28;19944;-49
2023/11/08 04:29:18;;;;;;;;;;;5.90;66.70;;;0.95;100.00;95753.41;5011838;28;21192;-50
2023/11/08 04:31:44;;;;;;;;;;;5.90;66.70;;;0.98;100.00;95758.25;5013095;28;19998;-49
2023/11/08 04:34:10;;;;;;;;;;;5.80;66.70;;;0.95;100.00;95753.41;5013329;28;19962;-48
2023/11/08 04:36:36;;;;;;;;;;;5.80;66.70;;;1.03;100.00;95755.81;5006840;28;20003;-48
2023/11/08 04:39:02;;;;;;;;;;;5.80;66.90;;;1.05;100.00;95761.69;5012630;28;20051;-48
2023/11/08 04:41:28;;;;;;;;;;;5.80;67.00;;;1.01;100.00;95755.22;5010770;28;20001;-48
2023/11/08 04:43:54;;;;;;;;;;;5.80;66.90;;;1.05;100.00;95753.81;5006213;28;20382;-50
2023/11/08 04:46:20;;;;;;;;;;;5.80;67.00;;;1.07;100.00;95751.00;5012751;28;19954;-49
2023/11/08 04:48:46;;;;;;;;;;;5.90;67.00;;;1.06;100.00;95750.16;5011630;28;19913;-48
2023/11/08 04:51:11;;;;;;;;;;;5.90;67.00;;;1.03;100.00;95749.75;5012639;28;19916;-49
2023/11/08 04:53:37;;;;;;;;;;;5.80;66.90;;;1.02;100.00;95751.59;5011995;28;19916;-48
2023/11/08 04:56:04;;;;;;;;;;;5.90;67.00;;;1.00;100.00;95750.16;5012592;28;20022;-48
2023/11/08 04:58:31;;;;;;;;;;;5.80;67.00;;;0.99;100.00;95749.34;5012226;28;20011;-50
2023/11/08 05:00:57;;;;;;;;;;;5.90;67.00;;;0.98;100.00;95754.81;5005919;28;19916;-48
2023/11/08 05:03:23;;;;;;;;;;;5.80;66.90;;;0.95;100.00;95758.66;5012454;28;20360;-49
2023/11/08 05:05:49;;;;;;;;;;;5.80;66.90;;;0.91;100.00;95754.81;5007986;28;19909;-48
2023/11/08 05:08:14;;;;;;;;;;;5.80;66.90;;;0.89;100.00;95756.81;5002251;28;19917;-48
2023/11/08 05:10:40;;;;;;;;;;;5.80;66.80;;;0.85;100.00;95753.78;5012139;28;20012;-48
2023/11/08 05:13:06;;;;;;;;;;;5.80;66.90;;;0.85;100.00;95771.34;5008330;28;19917;-49
2023/11/08 05:15:32;;;;;;;;;;;5.80;67.00;;;0.86;100.00;95765.09;5012353;28;19918;-49
2023/11/08 05:18:00;;;;;;;;;;;5.80;67.00;;;0.89;100.00;95767.31;5007704;28;20354;-49
2023/11/08 05:20:26;;;;;;;;;;;5.80;67.00;;;0.91;100.00;95760.88;5010657;28;19909;-48
2023/11/08 05:22:55;;;;;;;;;;;5.90;67.10;;;0.90;100.00;95768.91;5012140;28;19916;-50
2023/11/08 05:25:22;;;;;;;;;;;5.90;67.00;;;0.88;100.00;95761.25;5011289;28;19909;-48
2023/11/08 05:27:49;;;;;;;;;;;5.80;66.90;;;0.88;100.00;95761.25;5011381;28;19916;-48
2023/11/08 05:30:18;;;;;;;;;;;5.80;66.80;;;0.86;100.00;95759.84;5011683;28;19967;-48
2023/11/08 05:32:44;;;;;;;;;;;5.80;66.80;;;0.82;100.00;95767.31;5011958;28;19909;-49
2023/11/08 05:35:13;;;;;;;;;;;5.80;66.80;;;0.80;100.00;95756.19;5009698;28;19909;-48
2023/11/08 05:37:41;;;;;;;;;;;5.80;66.80;;;0.78;100.00;95763.44;5011951;28;19923;-48
2023/11/08 05:40:10;;;;;;;;;;;5.80;66.90;;;0.80;100.00;95771.13;5011015;28;19932;-49
2023/11/08 05:42:36;;;;;;;;;;;5.70;66.90;;;0.83;100.00;95771.53;5007682;28;19909;-48
2023/11/08 05:45:02;;;;;;;;;;;5.70;67.00;;;0.80;100.00;95771.94;5010090;28;20331;-51
2023/11/08 05:47:28;;;;;;;;;;;5.70;67.00;;;0.79;100.00;95772.13;5010492;28;19956;-49
2023/11/08 05:49:54;;;;;;;;;;;5.70;67.00;;;0.78;100.00;95770.50;5012528;28;20006;-49
2023/11/08 05:52:19;;;;;;;;;;;5.70;67.00;;;0.80;100.00;95776.38;5015493;28;19962;-48
2023/11/08 05:54:45;;;;;;;;;;;5.70;67.10;;;0.77;100.00;95774.94;5013659;28;19909;-49
2023/11/08 05:57:14;;;;;;;;;;;5.70;67.10;;;0.75;100.00;95771.69;5013885;28;20340;-49
2023/11/08 05:59:42;;;;;;;;;;;5.70;67.20;;;0.77;100.00;95779.38;5010156;28;19916;-51
2023/11/08 06:02:09;;;;;;;;;;;5.70;67.20;;;0.73;100.00;95773.75;5010692;28;19921;-52
2023/11/08 06:04:36;;;;;;;;;;;5.70;67.20;;;0.77;100.00;95774.16;5011049;28;19909;-53
2023/11/08 06:07:01;;;;;;;;;;;5.70;67.30;;;0.84;100.00;95777.56;5009816;28;20008;-51
2023/11/08 06:09:27;;;;;;;;;;;5.80;67.40;;;0.85;100.00;95776.59;5011272;28;20206;-53
2023/11/08 06:11:53;;;;;;;;;;;5.80;67.30;;;0.87;100.00;95783.22;5013401;28;19913;-54
2023/11/08 06:14:19;;;;;;;;;;;5.80;67.30;;;0.95;100.00;95778.81;5010952;28;19909;-51
2023/11/08 06:16:45;;;;;;;;;;;5.90;67.40;;;0.96;100.00;95781.25;5014400;28;19915;-49
2023/11/08 06:19:11;;;;;;;;;;;5.90;67.40;;;0.98;100.00;95784.47;5013213;28;19909;-50
2023/11/08 06:21:37;;;;;;;;;;;5.90;67.40;;;1.03;100.00;95783.88;5014309;28;20003;-48
2023/11/08 06:24:04;;;;;;;;;;;6.00;67.50;;;1.10;100.00;95785.50;5007030;28;19913;-51
2023/11/08 06:26:30;;;;;;;;;;;6.00;67.50;;;1.15;100.00;95788.31;5008510;28;19909;-48
2023/11/08 06:28:56;;;;;;;;;;;6.10;67.60;;;1.20;100.00;95786.94;5013890;28;19920;-52
2023/11/08 06:31:22;;;;;;;;;;;6.20;67.60;;;1.30;100.00;95787.34;5013321;28;19909;-52
2023/11/08 06:33:48;;;;;;;;;;;6.20;67.60;;;1.38;100.00;95787.16;5013985;28;20007;-49
2023/11/08 06:36:17;;;;;;;;;;;6.30;67.60;;;1.45;100.00;95792.41;5013166;28;19909;-51
2023/11/08 06:38:43;;;;;;;;;;;6.40;67.60;;;1.53;100.00;95798.22;4931790;28;1855198;-50
2023/11/08 06:41:09;;;;;;;;;;;6.50;67.70;;;1.58;100.00;95795.00;5014321;28;19913;-53
2023/11/08 06:43:35;;;;;;;;;;;6.50;67.60;;;1.65;100.00;95790.56;5013697;28;19913;-48
2023/11/08 06:46:01;;;;;;;;;;;6.60;67.60;;;1.67;100.00;95791.16;5011456;28;19955;-50
2023/11/08 06:48:27;;;;;;;;;;;6.70;67.50;;;1.71;100.00;95796.81;5008125;28;19924;-50
2023/11/08 06:50:53;;;;;;;;;;;6.70;67.40;;;1.71;100.00;95802.06;5007965;28;19909;-49
2023/11/08 06:53:20;;;;;;;;;;;6.70;67.30;;;1.71;100.00;95799.44;5013746;28;19909;-53
2023/11/08 06:55:46;;;;;;;;;;;6.80;67.20;;;1.69;100.00;95798.84;5011823;28;19920;-49
2023/11/08 06:58:13;;;;;;;;;;;6.80;67.00;;;1.66;100.00;95801.88;5012061;28;19916;-51
2023/11/08 07:00:39;;;;;;;;;;;6.80;66.90;;;1.64;100.00;95809.97;5013495;28;19920;-50
2023/11/08 07:03:05;;;;;;;;;;;6.80;66.90;;;1.67;100.00;95809.56;5011854;28;20283;-52
2023/11/08 07:05:32;;;;;;;;;;;6.80;66.90;;;1.71;100.00;95813.38;5013285;28;19909;-54
2023/11/08 07:07:59;;;;;;;;;;;6.90;67.00;;;1.77;100.00;95814.41;5011276;28;19921;-50
2023/11/08 07:10:25;;;;;;;;;;;6.90;67.00;;;1.81;100.00;95815.59;5013317;28;20372;-48
2023/11/08 07:12:52;;;;;;;;;;;7.00;67.00;;;1.85;100.00;95822.06;4992187;28;19994;-50
2023/11/08 07:15:19;;;;;;;;;;;7.10;67.10;;;1.89;100.00;95815.41;5010315;28;20429;-48
2023/11/08 07:17:45;;;;;;;;;;;7.10;67.10;;;1.95;100.00;95819.03;5006348;28;19909;-49
2023/11/08 07:20:11;;;;;;;;;;;7.20;67.10;;;1.99;100.00;95826.28;5004933;28;19913;-48
2023/11/08 07:22:37;;;;;;;;;;;7.30;67.00;;;2.08;100.00;95830.31;5013262;28;19909;-48
2023/11/08 07:25:04;;;;;;;;;;;7.40;67.10;;;2.20;100.00;95835.75;5008226;28;19909;-49
2023/11/08 07:27:30;;;;;;;;;;;7.40;67.00;;;2.33;100.00;95834.13;5005698;28;19920;-49
2023/11/08 07:29:56;;;;;;;;;;;7.50;66.90;;;2.44;100.00;95836.88;5004486;28;19909;-50
2023/11/08 07:32:22;;;;;;;;;;;7.70;66.90;;;2.55;100.00;95841.53;5010767;28;20288;-48
2023/11/08 07:34:48;;;;;;;;;;;7.80;66.90;;;2.61;100.00;95845.16;5007217;28;20383;-49
2023/11/08 07:37:14;;;;;;;;;;;7.80;66.80;;;2.67;100.00;95841.69;5008842;28;20325;-50
2023/11/08 07:39:40;;;;;;;;;;;7.90;66.80;;;2.73;100.00;95837.41;5010962;28;19917;-51
2023/11/08 07:42:07;;;;;;;;;;;8.00;66.80;;;2.75;100.00;95836.16;5006562;28;19935;-48
2023/11/08 07:44:34;;;;;;;;;;;8.10;66.70;;;2.77;100.00;95830.72;5008840;28;19925;-51
2023/11/08 07:47:00;;;;;;;;;;;8.10;66.60;;;2.81;100.00;95839.00;5012077;28;19908;-49
2023/11/08 07:49:29;;;;;;;;;;;8.20;66.60;;;2.84;100.00;95834.13;4995096;28;19920;-48
2023/11/08 07:51:55;;;;;;;;;;;8.10;66.50;;;2.88;100.00;95832.66;5012620;28;20366;-49
2023/11/08 07:54:21;;;;;;;;;;;8.20;66.60;;;2.92;100.00;95840.97;5013182;28;19964;-50
2023/11/08 07:56:47;;;;;;;;;;;8.20;66.50;;;2.97;100.00;95843.78;5016631;28;20287;-48
2023/11/08 07:59:13;;;;;;;;;;;8.20;66.50;;;3.03;100.00;95847.38;5012372;28;20272;-49
2023/11/08 08:01:39;;;;;;;;;;;8.30;66.60;;;3.08;100.00;95845.75;5012595;28;19916;-50
2023/11/08 08:04:08;;;;;;;;;;;8.30;66.60;;;3.13;100.00;95842.47;5013007;28;19913;-49
2023/11/08 08:06:34;;;;;;;;;;;8.40;66.70;;;3.14;100.00;95839.63;5012554;28;19916;-50
2023/11/08 08:09:00;;;;;;;;;;;8.40;66.70;;;3.24;100.00;95847.06;5012063;28;19913;-50
2023/11/08 08:11:26;;;;;;;;;;;8.50;66.70;;;3.35;100.00;95837.69;5012472;28;19943;-49
2023/11/08 08:13:52;;;;;;;;;;;8.60;66.70;;;3.44;100.00;95842.47;5010407;28;19916;-52
2023/11/08 08:16:19;;;;;;;;;;;8.80;66.80;;;3.55;100.00;95851.53;5013393;28;19913;-54
2023/11/08 08:18:47;;;;;;;;;;;8.90;66.80;;;3.64;100.00;95849.44;5012729;28;19975;-50
2023/11/08 08:21:14;;;;;;;;;;;9.00;66.70;;;3.79;100.00;95847.31;5013242;28;19909;-51
2023/11/08 08:23:40;;;;;;;;;;;9.30;66.70;;;4.01;100.00;95850.38;5012336;28;20365;-50
2023/11/08 08:26:07;;;;;;;;;;;9.50;66.40;;;4.21;100.00;95849.38;5013131;28;19915;-50
2023/11/08 08:28:34;;;;;;;;;;;9.80;66.30;;;4.40;100.00;95854.44;5013109;28;20463;-48
2023/11/08 08:31:02;;;;;;;;;;;10.20;66.30;;;4.66;100.00;95852.53;5011938;28;19932;-50
2023/11/08 08:33:28;;;;;;;;;;;10.50;66.10;;;4.92;100.00;95856.72;5012635;28;19909;-49
2023/11/08 08:35:54;;;;;;;;;;;10.80;66.00;;;5.24;100.00;95859.16;5011944;28;19913;-50
2023/11/08 08:38:23;;;;;;;;;;;11.20;66.00;;;5.60;100.00;95852.94;4995483;28;19923;-50
2023/11/08 08:40:49;;;;;;;;;;;11.70;65.90;;;5.92;100.00;95855.28;5012838;28;20265;-49
2023/11/08 08:43:20;;;;;;;;;;;12.10;65.80;;;6.20;100.00;95863.38;5008084;28;19909;-49
2023/11/08 08:45:47;;;;;;;;;;;12.50;65.50;;;6.54;100.00;95854.88;5012627;28;19909;-49
2023/11/08 08:48:13;;;;;;;;;;;13.00;65.50;;;6.87;100.00;95848.94;5011736;28;19913;-50
2023/11/08 08:50:39;;;;;;;;;;;13.40;65.20;;;7.19;96.20;95844.00;5012591;28;19909;-49
2023/11/08 08:53:05;;;;;;;;;;;13.70;64.90;;;7.48;94.90;95846.63;5012478;28;20406;-48
2023/11/08 08:55:31;;;;;;;;;;;14.10;64.60;;;7.74;89.68;95858.47;5011763;28;19909;-48
2023/11/08 08:57:57;;;;;;;;;;;14.50;64.30;;;8.00;87.51;95852.56;5012456;28;19909;-49
2023/11/08 09:00:23;;;;;;;;;;;14.80;63.70;;;8.36;87.13;95850.44;5011395;28;20004;-49
2023/11/08 09:02:50;;;;;;;;;;;15.10;63.10;;;8.60;84.20;95853.72;5012447;28;19909;-49
2023/11/08 09:05:23;;;;;;;;;;;15.40;62.70;;;8.90;84.19;95857.81;5011602;28;19913;-48
2023/11/08 09:07:51;;;;;;;;;;;15.70;62.40;;;9.03;78.97;95854.81;5012138;28;19917;-48
2023/11/08 09:10:17;;;;;;;;;;;16.00;61.80;;;9.25;77.34;95862.78;5012417;28;19936;-49
2023/11/08 09:12:44;;;;;;;;;;;16.20;61.20;;;9.39;76.24;95858.66;4993771;28;20284;-48
2023/11/08 09:15:12;;;;;;;;;;;16.40;60.50;;;9.62;74.91;95856.75;5012238;28;19932;-48
2023/11/08 09:17:39;;;;;;;;;;;16.60;60.00;;;9.92;73.89;95857.03;5011448;28;19913;-48
2023/11/08 09:20:09;;;;;;;;;;;16.90;59.80;;;10.32;74.04;95860.31;5012120;28;19909;-48
2023/11/08 09:22:40;;;;;;;;;;;17.10;59.90;;;10.56;70.14;95863.38;5012186;28;20312;-48
2023/11/08 09:25:08;;;;;;;;;;;17.50;59.40;;;10.88;69.07;95873.97;5011256;28;20012;-51
2023/11/08 09:27:35;;;;;;;;;;;17.70;59.10;;;11.10;69.13;95866.59;5012094;28;20367;-48
2023/11/08 09:30:03;;;;;;;;;;;17.90;58.90;;;11.29;64.78;95868.81;5011189;28;19909;-51
2023/11/08 09:32:29;;;;;;;;;;;18.30;58.80;;;11.60;65.93;95875.03;5012218;28;19915;-48
2023/11/08 09:34:55;;;;;;;;;;;18.50;58.30;;;11.91;65.15;95877.75;5011928;28;20283;-48
2023/11/08 09:37:21;;;;;;;;;;;18.80;58.10;;;11.94;62.32;95878.06;5011216;28;19909;-48
2023/11/08 09:39:49;;;;;;;;;;;19.10;57.60;;;11.76;61.86;95873.19;5011754;28;19917;-49
2023/11/08 09:42:18;;;;;;;;;;;19.30;56.90;;;11.72;62.49;95875.59;5005038;28;19909;-48
2023/11/08 09:44:46;;;;;;;;;;;19.40;56.40;;;11.76;61.50;95868.66;5011057;28;19955;-48
2023/11/08 09:47:13;;;;;;;;;;;19.50;56.10;;;11.99;62.08;95867.38;5010908;28;19909;-47
2023/11/08 09:49:41;;;;;;;;;;;19.60;55.90;;;12.40;62.70;95867.34;5011689;28;20367;-48
2023/11/08 09:52:07;;;;;;;;;;;19.80;56.00;;;12.49;59.02;95871.09;5011312;28;20300;-48
2023/11/08 09:54:34;;;;;;;;;;;20.00;55.90;;;12.48;58.68;95860.69;4992501;28;19966;-48
2023/11/08 09:57:02;;;;;;;;;;;20.20;55.40;;;12.47;59.03;95859.06;5008761;28;19955;-48
2023/11/08 09:59:31;;;;;;;;;;;20.20;54.80;;;12.45;59.02;95854.00;5010993;28;19952;-49
2023/11/08 10:02:05;;;;;;;;;;;20.30;54.50;;;12.64;59.17;95862.25;5008324;28;19981;-49
2023/11/08 10:04:31;;;;;;;;;;;20.40;54.40;;;12.95;59.43;95856.84;5011959;28;20372;-49
2023/11/08 10:06:57;;;;;;;;;;;20.60;54.50;;;13.28;59.50;95865.28;5010720;28;20364;-48
2023/11/08 10:09:31;;;;;;;;;;;20.80;54.50;;;12.98;57.00;95864.31;5011614;28;19971;-48
2023/11/08 10:11:58;;;;;;;;;;;20.90;53.50;;;12.78;56.92;95846.44;5009014;28;19916;-48
2023/11/08 10:14:34;;;;;;;;;;;20.80;53.00;;;12.60;58.18;95855.06;4994188;28;19919;-50
2023/11/08 10:17:03;;;;;;;;;;;20.60;52.90;;;12.70;58.02;95853.16;5011832;28;19916;-49
2023/11/08 10:19:47;;;;;;;;;;;20.60;52.90;;;12.56;57.35;95841.41;5010728;28;19970;-52
2023/11/08 10:22:21;;;;;;;;;;;20.60;52.30;;;12.70;58.24;95841.66;5011737;28;20019;-48
2023/11/08 10:25:02;;;;;;;;;;;20.70;52.30;;;12.71;59.01;95836.03;5010671;28;19924;-51
2023/11/08 10:27:31;;;;;;;;;;;20.80;52.30;;;12.91;57.57;95829.84;5011586;28;19913;-49
2023/11/08 10:30:15;;;;;;;;;;;21.00;52.40;;;13.01;57.62;95823.66;5010529;28;19940;-53
2023/11/08 10:32:43;;;;;;;;;;;21.10;51.80;;;13.15;56.25;95824.66;5001476;28;20360;-49
2023/11/08 10:35:20;;;;;;;;;;;21.30;51.60;;;12.86;58.03;95827.19;5003489;28;19992;-52
2023/11/08 10:37:50;;;;;;;;;;;21.50;51.60;;;12.98;58.03;95823.41;4994311;28;19931;-49
2023/11/08 10:40:21;;;;;;;;;;;21.60;51.00;;;13.34;55.15;95811.47;4998100;28;19924;-49
2023/11/08 10:42:52;;;;;;;;;;;21.70;50.50;;;13.42;54.72;95818.13;4999468;28;19913;-50
2023/11/08 10:45:20;;;;;;;;;;;21.80;50.10;;;13.33;53.48;95815.25;4995559;28;19920;-48
2023/11/08 10:47:47;;;;;;;;;;;21.90;49.50;;;13.28;54.35;95809.91;4998660;28;19916;-53
2023/11/08 10:50:15;;;;;;;;;;;22.00;48.70;;;13.23;54.97;95809.91;5003819;28;19936;-52
2023/11/08 10:52:48;;;;;;;;;;;22.00;48.00;;;13.72;55.03;95806.41;5008541;28;20322;-54
2023/11/08 10:55:15;;;;;;;;;;;22.00;48.50;;;13.83;53.32;95799.94;5009851;28;19932;-50
2023/11/08 10:57:51;;;;;;;;;;;22.20;48.90;;;13.78;52.48;95799.16;5014145;28;19913;-49
2023/11/08 11:00:21;;;;;;;;;;;22.20;48.40;;;13.49;52.67;95797.22;4996300;28;19963;-53
2023/11/08 11:03:05;;;;;;;;;;;22.30;47.20;;;13.56;53.29;95796.91;4997080;28;19948;-48
2023/11/08 11:05:40;;;;;;;;;;;22.30;46.60;;;13.32;50.50;95796.81;5006318;28;19913;-50
2023/11/08 11:08:06;;;;;;;;;;;22.40;46.20;;;13.29;52.96;95792.00;5013843;28;19917;-50
2023/11/08 11:10:33;;;;;;;;;;;22.40;45.10;;;13.45;52.12;95787.34;5010901;28;19952;-50
2023/11/08 11:13:06;;;;;;;;;;;22.40;44.80;;;13.18;52.13;95785.84;5010970;28;19913;-49
2023/11/08 11:16:09;;;;;;;;;;;22.40;43.90;;;13.30;51.67;95777.53;5005608;28;20257;-48
2023/11/08 11:18:48;;;;;;;;;;;22.40;43.70;;;13.60;53.50;95780.03;5008950;28;19909;-51
2023/11/08 11:21:27;;;;;;;;;;;22.30;43.50;;;13.86;50.67;95774.47;5013960;28;19909;-48
2023/11/08 11:23:54;;;;;;;;;;;22.40;43.90;;;13.84;50.18;95774.75;4993309;28;19980;-49
2023/11/08 11:26:44;;;;;;;;;;;22.50;44.10;;;14.10;51.56;95772.66;5012638;28;19913;-52